Time;durP1;ratioP1;P1;durP2;ratioP2;P2;SDS_P1;SDS_P2;PMS_P1;PMS_P2;Temp;Humidity;BMP_temperature;BMP_pressure;BME280_temperature;BME280_humidity;BME280_pressure;Samples;Min_cycle;Max_cycle;Signal;HPM_P1;HPM_P2
2021/01/01 00:01:06;;;;;;;18.73;11.97;;;;;;;-1.16;89.97;94261.75;5096640;28;20246;-78
2021/01/01 00:03:32;;;;;;;18.67;12.53;;;;;;;-1.14;89.95;94264.22;5073331;28;20659;-79
2021/01/01 00:05:57;;;;;;;19.80;14.33;;;;;;;-1.09;90.03;94271.53;5092939;28;20198;-79
2021/01/01 00:08:22;;;;;;;22.07;15.30;;;;;;;-1.06;90.16;94264.50;5091394;28;20182;-79
2021/01/01 00:10:49;;;;;;;19.73;13.73;;;;;;;-1.03;90.18;94264.28;5076908;28;20246;-78
2021/01/01 00:13:14;;;;;;;20.67;11.97;;;;;;;-0.99;90.07;94273.31;5077205;28;20205;-79
2021/01/01 00:15:40;;;;;;;17.57;12.30;;;;;;;-0.94;89.98;94278.09;5093879;28;20215;-79
2021/01/01 00:18:05;;;;;;;18.17;12.20;;;;;;;-0.91;90.11;94275.31;5091454;28;20239;-79
2021/01/01 00:20:30;;;;;;;18.90;13.17;;;;;;;-0.89;89.83;94270.91;5107745;28;20304;-79
2021/01/01 00:22:56;;;;;;;14.80;11.80;;;;;;;-0.90;90.17;94276.94;5111942;28;20183;-79
2021/01/01 00:25:21;;;;;;;17.03;12.13;;;;;;;-0.88;89.65;94278.47;5113084;27;20262;-80
2021/01/01 00:27:47;;;;;;;16.63;12.70;;;;;;;-0.87;89.56;94282.66;5090637;28;20210;-79
2021/01/01 00:30:12;;;;;;;17.53;13.00;;;;;;;-0.84;89.85;94285.88;5075428;28;20176;-79
2021/01/01 00:32:42;;;;;;;19.90;13.77;;;;;;;-0.83;89.88;94287.50;5075302;28;20188;-79
2021/01/01 00:35:09;;;;;;;21.77;13.53;;;;;;;-0.82;89.88;94284.03;5058151;28;20210;-79
2021/01/01 00:37:35;;;;;;;21.40;12.40;;;;;;;-0.80;90.04;94288.09;5103930;28;20569;-79
2021/01/01 00:40:01;;;;;;;20.53;12.57;;;;;;;-0.79;89.80;94289.75;5095326;28;20708;-79
2021/01/01 00:42:26;;;;;;;16.27;9.60;;;;;;;-0.74;89.46;94286.84;5095306;28;20204;-79
2021/01/01 00:44:52;;;;;;;12.73;8.67;;;;;;;-0.71;90.19;94287.44;5095656;28;20179;-78
2021/01/01 00:47:17;;;;;;;11.50;8.30;;;;;;;-0.73;90.02;94283.38;5102985;28;20246;-79
2021/01/01 00:49:42;;;;;;;10.73;7.37;;;;;;;-0.73;90.04;94285.94;5101302;28;20555;-79
2021/01/01 00:52:08;;;;;;;10.63;7.70;;;;;;;-0.73;90.19;94284.19;5093673;28;20169;-79
2021/01/01 00:54:33;;;;;;;9.83;6.90;;;;;;;-0.70;90.27;94278.88;5092211;28;20208;-79
2021/01/01 00:56:58;;;;;;;10.43;7.23;;;;;;;-0.71;90.20;94284.06;5099890;28;20199;-79
2021/01/01 00:59:24;;;;;;;12.27;8.10;;;;;;;-0.72;90.28;94287.53;5101756;28;20198;-78
2021/01/01 01:01:50;;;;;;;8.30;6.63;;;;;;;-0.71;90.05;94291.72;5075163;28;20251;-78
2021/01/01 01:04:15;;;;;;;10.87;7.00;;;;;;;-0.72;89.96;94293.47;5075346;28;20184;-79
2021/01/01 01:06:40;;;;;;;13.33;8.37;;;;;;;-0.70;90.03;94301.03;5074988;28;20204;-78
2021/01/01 01:09:06;;;;;;;15.80;9.77;;;;;;;-0.70;90.14;94306.94;5094018;28;20646;-78
2021/01/01 01:11:32;;;;;;;15.40;9.40;;;;;;;-0.68;90.06;94309.38;5117367;28;20179;-79
2021/01/01 01:13:58;;;;;;;27.43;13.93;;;;;;;-0.67;90.05;94304.16;5116180;28;20186;-78
2021/01/01 01:16:28;;;;;;;29.13;16.03;;;;;;;-0.67;90.27;94303.34;5098800;28;20207;-78
2021/01/01 01:18:55;;;;;;;24.43;13.77;;;;;;;-0.66;90.42;94315.16;5098044;28;20168;-79
2021/01/01 01:21:21;;;;;;;27.53;15.10;;;;;;;-0.64;90.20;94318.41;5112540;28;20363;-79
2021/01/01 01:23:46;;;;;;;23.67;13.20;;;;;;;-0.65;90.40;94322.69;5098934;28;20180;-78
2021/01/01 01:26:12;;;;;;;19.57;11.20;;;;;;;-0.62;90.04;94321.66;5098390;28;20539;-79
2021/01/01 01:28:37;;;;;;;14.97;9.17;;;;;;;-0.57;89.98;94327.25;5096655;28;20191;-79
2021/01/01 01:31:02;;;;;;;12.10;8.00;;;;;;;-0.59;89.70;94326.56;5112982;27;20191;-79
2021/01/01 01:33:28;;;;;;;12.00;8.57;;;;;;;-0.62;90.09;94326.75;5114327;28;20534;-79
2021/01/01 01:35:53;;;;;;;13.17;8.60;;;;;;;-0.59;89.89;94329.09;5116519;28;20222;-79
2021/01/01 01:38:19;;;;;;;12.30;8.30;;;;;;;-0.59;90.26;94324.00;5117679;28;20549;-79
2021/01/01 01:40:44;;;;;;;13.57;8.20;;;;;;;-0.59;90.14;94322.25;5116682;28;20515;-79
2021/01/01 01:43:09;;;;;;;15.60;10.03;;;;;;;-0.59;90.31;94326.56;5116906;28;20180;-79
2021/01/01 01:45:35;;;;;;;11.93;8.77;;;;;;;-0.59;90.28;94321.44;5115313;28;20290;-79
2021/01/01 01:48:01;;;;;;;13.40;9.23;;;;;;;-0.57;90.24;94327.25;5115365;28;20227;-79
2021/01/01 01:50:27;;;;;;;11.57;8.87;;;;;;;-0.60;89.93;94315.53;5114470;27;20557;-79
2021/01/01 01:52:52;;;;;;;11.57;8.23;;;;;;;-0.58;90.24;94328.19;5081487;28;20168;-80
2021/01/01 01:55:18;;;;;;;12.70;8.50;;;;;;;-0.58;90.21;94328.97;5098301;28;20211;-80
2021/01/01 01:57:43;;;;;;;12.17;9.03;;;;;;;-0.59;90.01;94332.47;5098724;28;20253;-79
2021/01/01 02:00:43;;;;;;;13.23;9.90;;;;;;;-0.61;89.93;94338.59;5081300;28;20199;-79
2021/01/01 02:03:14;;;;;;;16.30;10.63;;;;;;;-0.63;90.21;94345.53;5088870;28;20182;-79
2021/01/01 02:05:39;;;;;;;15.30;10.53;;;;;;;-0.68;89.80;94343.31;5097877;28;20206;-79
2021/01/01 02:08:05;;;;;;;15.60;10.87;;;;;;;-0.68;89.95;94343.31;5115525;28;20526;-78
2021/01/01 02:10:31;;;;;;;16.80;11.80;;;;;;;-0.72;89.92;94347.00;5115618;28;20206;-79
2021/01/01 02:12:56;;;;;;;14.97;10.93;;;;;;;-0.71;89.88;94352.91;5114768;28;20187;-78
2021/01/01 02:15:21;;;;;;;14.87;10.23;;;;;;;-0.71;89.84;94352.91;5086124;28;20242;-78
2021/01/01 02:17:47;;;;;;;13.73;10.27;;;;;;;-0.66;90.00;94355.94;5078083;28;20180;-79
2021/01/01 02:20:12;;;;;;;16.40;10.93;;;;;;;-0.68;89.94;94357.81;5060115;28;20225;-78
2021/01/01 02:22:38;;;;;;;16.47;11.40;;;;;;;-0.69;89.96;94361.28;5103985;27;20187;-79
2021/01/01 02:25:05;;;;;;;17.23;10.57;;;;;;;-0.71;89.93;94358.81;5114747;28;20713;-79
2021/01/01 02:27:31;;;;;;;15.00;10.73;;;;;;;-0.69;89.96;94362.09;5132109;27;20203;-78
2021/01/01 02:29:56;;;;;;;18.57;12.50;;;;;;;-0.70;89.95;94369.84;5114664;28;20179;-79
2021/01/01 02:32:21;;;;;;;15.90;10.67;;;;;;;-0.70;90.08;94368.13;5115286;28;20191;-79
2021/01/01 02:34:47;;;;;;;18.80;12.63;;;;;;;-0.72;89.93;94367.38;5098545;28;20259;-79
2021/01/01 02:37:12;;;;;;;15.30;10.57;;;;;;;-0.71;89.98;94368.19;5111005;28;20192;-78
2021/01/01 02:39:37;;;;;;;15.90;11.73;;;;;;;-0.70;89.96;94372.41;5114379;28;20630;-79
2021/01/01 02:42:04;;;;;;;15.57;11.30;;;;;;;-0.71;90.08;94368.19;5116115;28;20179;-80
2021/01/01 02:44:29;;;;;;;15.23;10.63;;;;;;;-0.64;89.79;94370.22;5113859;27;20583;-79
2021/01/01 02:47:02;;;;;;;15.10;10.40;;;;;;;-0.65;89.93;94368.59;5108618;28;20187;-79
2021/01/01 02:49:28;;;;;;;15.40;10.00;;;;;;;-0.69;89.79;94376.56;5080507;28;20270;-79
2021/01/01 02:51:53;;;;;;;14.30;10.10;;;;;;;-0.72;89.71;94372.50;5115974;28;20210;-79
2021/01/01 02:54:19;;;;;;;18.87;10.97;;;;;;;-0.71;89.75;94376.66;5096204;28;20176;-79
2021/01/01 02:56:44;;;;;;;19.40;12.77;;;;;;;-0.74;89.73;94376.06;5097212;28;20200;-79
2021/01/01 02:59:09;;;;;;;16.47;11.23;;;;;;;-0.74;89.79;94369.25;5097351;28;20196;-78
2021/01/01 03:01:34;;;;;;;16.07;10.80;;;;;;;-0.75;89.62;94369.34;5080143;28;20171;-79
2021/01/01 03:04:00;;;;;;;15.30;10.10;;;;;;;-0.74;89.77;94373.53;5080314;28;20792;-79
2021/01/01 03:06:25;;;;;;;13.50;9.33;;;;;;;-0.73;89.93;94375.97;5108422;28;20199;-79
2021/01/01 03:08:50;;;;;;;13.30;8.83;;;;;;;-0.72;89.96;94371.69;5110837;28;20187;-79
2021/01/01 03:11:16;;;;;;;14.80;9.70;;;;;;;-0.70;90.23;94372.41;5094965;28;20187;-79
2021/01/01 03:13:41;;;;;;;16.27;10.90;;;;;;;-0.69;89.61;94372.28;5095254;28;20176;-79
2021/01/01 03:16:06;;;;;;;11.17;8.43;;;;;;;-0.70;90.01;94368.13;5102503;27;20639;-78
2021/01/01 03:18:32;;;;;;;9.67;7.43;;;;;;;-0.69;89.85;94366.38;5105877;28;20198;-79
2021/01/01 03:20:57;;;;;;;12.80;7.43;;;;;;;-0.67;89.80;94372.19;5114069;28;20187;-79
2021/01/01 03:23:22;;;;;;;10.47;7.40;;;;;;;-0.69;89.92;94366.38;5115337;28;20203;-78
2021/01/01 03:25:47;;;;;;;11.07;8.30;;;;;;;-0.69;89.69;94363.84;5113854;28;20584;-78
2021/01/01 03:28:15;;;;;;;10.37;7.33;;;;;;;-0.72;89.69;94369.94;5109082;28;20241;-78
2021/01/01 03:30:40;;;;;;;10.87;7.00;;;;;;;-0.72;89.91;94367.38;5097277;28;20182;-79
2021/01/01 03:33:06;;;;;;;9.37;7.07;;;;;;;-0.70;89.83;94367.31;5097218;28;20180;-79
2021/01/01 03:35:31;;;;;;;10.37;7.43;;;;;;;-0.72;89.63;94366.56;5115290;28;20207;-78
2021/01/01 03:37:57;;;;;;;8.63;6.60;;;;;;;-0.71;89.62;94370.75;5103870;28;20171;-78
2021/01/01 03:40:22;;;;;;;9.77;7.33;;;;;;;-0.73;89.77;94365.75;5108532;28;20183;-79
2021/01/01 03:42:48;;;;;;;8.97;7.10;;;;;;;-0.72;89.59;94372.50;5093550;28;20174;-79
2021/01/01 03:45:14;;;;;;;10.03;7.47;;;;;;;-0.74;89.51;94371.78;5093396;28;20617;-78
2021/01/01 03:47:40;;;;;;;8.83;6.77;;;;;;;-0.73;89.58;94377.69;5094951;28;20266;-78
2021/01/01 03:50:06;;;;;;;10.90;7.77;;;;;;;-0.75;89.65;94375.25;5108838;28;20180;-79
2021/01/01 03:52:31;;;;;;;10.73;7.57;;;;;;;-0.77;90.08;94366.91;5079340;28;20178;-79
2021/01/01 03:54:56;;;;;;;12.27;8.30;;;;;;;-0.77;89.91;94374.56;5113550;28;20542;-79
2021/01/01 03:57:22;;;;;;;10.57;7.40;;;;;;;-0.77;89.88;94383.94;5113863;28;20221;-78
2021/01/01 03:59:47;;;;;;;9.87;7.63;;;;;;;-0.75;89.76;94382.91;5108684;28;20198;-78
2021/01/01 04:02:12;;;;;;;11.60;7.33;;;;;;;-0.70;89.60;94380.88;5109311;28;20184;-79
2021/01/01 04:04:38;;;;;;;10.13;7.47;;;;;;;-0.79;89.62;94390.91;5109631;28;20202;-78
2021/01/01 04:07:03;;;;;;;11.43;7.20;;;;;;;-0.80;89.32;94386.69;5092480;28;20200;-78
2021/01/01 04:09:28;;;;;;;10.50;7.33;;;;;;;-0.83;89.37;94384.38;5100620;27;20233;-79
2021/01/01 04:11:54;;;;;;;8.47;6.73;;;;;;;-0.88;89.65;94382.16;5107139;28;20185;-78
2021/01/01 04:14:19;;;;;;;10.53;7.30;;;;;;;-0.89;89.31;94390.69;5096296;28;20179;-78
2021/01/01 04:16:45;;;;;;;11.23;7.17;;;;;;;-0.88;89.53;94387.25;5096314;28;20218;-79
2021/01/01 04:19:11;;;;;;;10.03;6.70;;;;;;;-0.94;89.49;94385.13;5095959;28;20176;-78
2021/01/01 04:21:36;;;;;;;10.17;7.10;;;;;;;-0.96;89.11;94376.78;5081986;28;20585;-79
2021/01/01 04:24:01;;;;;;;9.37;6.93;;;;;;;-0.98;89.21;94381.97;5092299;28;20698;-78
2021/01/01 04:26:26;;;;;;;10.10;7.53;;;;;;;-1.01;89.68;94381.38;5092538;28;20846;-79
2021/01/01 04:28:52;;;;;;;10.40;7.73;;;;;;;-1.01;89.54;94381.38;5092204;28;20651;-78
2021/01/01 04:31:17;;;;;;;10.50;7.50;;;;;;;-1.02;89.68;94387.38;5104779;27;20266;-79
2021/01/01 04:33:43;;;;;;;11.93;7.83;;;;;;;-1.03;89.64;94391.69;5105675;28;20186;-78
2021/01/01 04:36:08;;;;;;;11.27;7.80;;;;;;;-1.06;89.65;94386.81;5112499;28;20213;-79
2021/01/01 04:38:34;;;;;;;9.43;7.40;;;;;;;-1.05;89.65;94385.88;5112705;28;20183;-78
2021/01/01 04:41:00;;;;;;;10.87;7.90;;;;;;;-1.07;89.42;94391.97;5111424;28;20189;-79
2021/01/01 04:43:26;;;;;;;10.77;8.37;;;;;;;-1.09;89.63;94394.63;5110132;28;20187;-78
2021/01/01 04:45:53;;;;;;;12.00;7.93;;;;;;;-1.06;89.78;94398.69;5075564;28;20188;-79
2021/01/01 04:48:18;;;;;;;9.77;7.00;;;;;;;-1.07;89.41;94399.63;5058779;28;20175;-78
2021/01/01 04:50:43;;;;;;;10.30;7.20;;;;;;;-1.09;89.93;94404.81;5058442;28;20190;-78
2021/01/01 04:53:09;;;;;;;11.97;8.23;;;;;;;-1.08;89.50;94406.44;5100523;28;20278;-77
2021/01/01 04:55:36;;;;;;;9.70;7.80;;;;;;;-1.08;89.97;94401.34;5111848;28;20259;-77
2021/01/01 04:58:01;;;;;;;10.60;7.23;;;;;;;-1.06;89.58;94401.25;5096003;28;20227;-79
2021/01/01 05:00:26;;;;;;;9.97;7.07;;;;;;;-1.03;89.95;94404.41;5113815;28;20175;-79
2021/01/01 05:02:52;;;;;;;9.97;6.90;;;;;;;-1.05;89.74;94401.16;5113765;28;20181;-79
2021/01/01 05:05:25;;;;;;;9.23;6.90;;;;;;;-1.05;89.73;94406.25;5096222;28;20224;-79
2021/01/01 05:07:50;;;;;;;9.07;6.97;;;;;;;-1.04;89.50;94401.97;5096870;28;20168;-78
2021/01/01 05:10:16;;;;;;;8.03;6.17;;;;;;;-1.03;89.17;94411.25;5096806;28;20205;-79
2021/01/01 05:12:41;;;;;;;8.73;6.57;;;;;;;-1.06;89.76;94417.38;5095807;28;20210;-78
2021/01/01 05:15:07;;;;;;;7.50;6.33;;;;;;;-1.08;89.16;94418.38;5113709;28;20206;-78
2021/01/01 05:17:34;;;;;;;8.73;6.17;;;;;;;-1.07;89.40;94415.72;5077185;28;20230;-79
2021/01/01 05:20:10;;;;;;;6.53;5.10;;;;;;;-1.06;88.77;94419.06;5059266;28;20247;-79
2021/01/01 05:22:36;;;;;;;6.63;5.37;;;;;;;-1.10;89.07;94418.50;5076615;28;20324;-78
2021/01/01 05:25:04;;;;;;;8.30;5.70;;;;;;;-1.08;89.14;94424.28;5100681;28;20667;-79
2021/01/01 05:27:33;;;;;;;6.97;5.50;;;;;;;-1.07;88.96;94428.47;5084278;28;20215;-79
2021/01/01 05:29:58;;;;;;;6.87;5.13;;;;;;;-1.11;88.76;94428.78;5092577;28;20590;-78
2021/01/01 05:32:27;;;;;;;7.23;5.80;;;;;;;-1.11;88.80;94428.78;5073880;28;20215;-78
2021/01/01 05:34:53;;;;;;;7.50;5.67;;;;;;;-1.13;88.74;94431.44;5080936;28;20647;-77
2021/01/01 05:37:44;;;;;;;6.60;4.70;;;;;;;-1.11;88.55;94437.25;5093956;28;20231;-78
2021/01/01 05:40:13;;;;;;;5.87;4.53;;;;;;;-1.14;88.67;94432.38;5105504;28;20198;-78
2021/01/01 05:42:38;;;;;;;5.37;4.67;;;;;;;-1.12;88.69;94440.72;5111288;28;20178;-79
2021/01/01 05:45:18;;;;;;;7.87;5.10;;;;;;;-1.12;88.81;94437.34;5108638;28;20176;-78
2021/01/01 05:48:02;;;;;;;10.30;6.23;;;;;;;-1.11;88.30;94439.78;5095284;28;20533;-79
2021/01/01 05:50:28;;;;;;;45.53;21.13;;;;;;;-1.10;88.24;94438.06;5094160;28;20175;-78
2021/01/01 05:53:08;;;;;;;16.13;11.10;;;;;;;-1.09;88.36;94455.78;5094074;28;20186;-78
2021/01/01 05:55:33;;;;;;;16.03;9.20;;;;;;;-1.05;88.25;94457.22;5094880;27;20214;-78
2021/01/01 05:57:59;;;;;;;14.73;9.47;;;;;;;-1.10;88.40;94456.72;5118678;27;20174;-78
2021/01/01 06:00:25;;;;;;;5.83;4.60;;;;;;;-1.12;87.58;94456.00;5110822;28;20218;-79
2021/01/01 06:02:53;;;;;;;4.87;3.80;;;;;;;-1.09;88.13;94450.69;5077848;28;20588;-79
2021/01/01 06:05:19;;;;;;;5.33;4.17;;;;;;;-1.09;88.25;94449.88;5095201;28;20171;-79
2021/01/01 06:07:46;;;;;;;4.73;4.10;;;;;;;-1.10;88.08;94461.81;5108527;28;20582;-78
2021/01/01 06:10:11;;;;;;;4.70;4.00;;;;;;;-1.13;87.95;94464.56;5080760;28;20204;-78
2021/01/01 06:12:38;;;;;;;6.07;4.13;;;;;;;-1.14;88.17;94465.50;5098636;28;20168;-79
2021/01/01 06:15:06;;;;;;;6.00;3.90;;;;;;;-1.12;88.01;94467.94;5098561;28;20176;-79
2021/01/01 06:17:33;;;;;;;5.73;4.13;;;;;;;-1.16;88.02;94470.66;5096191;28;20201;-79
2021/01/01 06:19:59;;;;;;;4.17;3.57;;;;;;;-1.18;87.99;94469.16;5091129;28;20260;-79
2021/01/01 06:22:29;;;;;;;3.43;3.00;;;;;;;-1.12;87.70;94473.84;5077784;28;20206;-78
2021/01/01 06:24:56;;;;;;;3.90;3.07;;;;;;;-1.17;87.43;94478.41;5077710;28;20180;-78
2021/01/01 06:27:24;;;;;;;3.97;3.03;;;;;;;-1.25;87.09;94484.00;5077817;28;20210;-79
2021/01/01 06:29:55;;;;;;;3.87;3.10;;;;;;;-1.25;87.61;94485.75;5113241;28;20188;-79
2021/01/01 06:32:21;;;;;;;3.40;3.10;;;;;;;-1.24;87.38;94483.09;5097819;28;20183;-79
2021/01/01 06:34:46;;;;;;;4.00;3.60;;;;;;;-1.28;87.07;94480.88;5097552;28;20254;-79
2021/01/01 06:37:35;;;;;;;4.33;3.17;;;;;;;-1.31;87.16;94484.44;5097998;28;20290;-78
2021/01/01 06:40:00;;;;;;;3.80;3.10;;;;;;;-1.32;87.06;94489.66;5100704;28;20590;-80
2021/01/01 06:42:51;;;;;;;4.40;3.40;;;;;;;-1.33;87.27;94488.81;5112960;28;20182;-78
2021/01/01 06:45:44;;;;;;;3.67;3.03;;;;;;;-1.36;87.44;94496.66;5097532;28;20517;-79
2021/01/01 06:48:22;;;;;;;12.80;7.23;;;;;;;-1.35;87.21;94500.03;5097498;28;20190;-79
2021/01/01 06:50:54;;;;;;;9.10;5.63;;;;;;;-1.37;87.24;94506.94;5114128;28;20175;-79
2021/01/01 06:53:27;;;;;;;14.77;9.27;;;;;;;-1.40;87.00;94512.25;5097361;28;20207;-80
2021/01/01 06:55:58;;;;;;;7.00;5.50;;;;;;;-1.42;86.94;94507.25;5114719;28;20666;-80
2021/01/01 06:58:24;;;;;;;5.03;3.50;;;;;;;-1.39;87.06;94511.34;5098069;28;20182;-80
2021/01/01 07:00:50;;;;;;;4.53;3.43;;;;;;;-1.39;86.81;94508.78;5097714;28;20206;-79
2021/01/01 07:03:24;;;;;;;5.83;3.63;;;;;;;-1.42;85.99;94510.59;5115286;28;20186;-77
2021/01/01 07:05:49;;;;;;;3.93;3.30;;;;;;;-1.42;86.71;94510.59;5096568;28;20203;-79
2021/01/01 07:08:39;;;;;;;4.00;3.60;;;;;;;-1.35;85.62;94520.41;5097212;28;20192;-79
2021/01/01 07:11:05;;;;;;;3.70;3.03;;;;;;;-1.36;85.63;94519.59;5100321;27;20319;-78
2021/01/01 07:13:49;;;;;;;5.13;3.77;;;;;;;-1.40;85.92;94518.16;5104584;28;20195;-79
2021/01/01 07:16:19;;;;;;;4.30;3.37;;;;;;;-1.40;85.77;94519.91;5114964;28;20238;-80
2021/01/01 07:18:44;;;;;;;4.10;3.53;;;;;;;-1.37;86.10;94515.41;5097047;28;20190;-80
2021/01/01 07:21:11;;;;;;;3.73;3.13;;;;;;;-1.30;85.62;94516.63;5078052;28;20184;-80
2021/01/01 07:23:37;;;;;;;4.53;3.70;;;;;;;-1.33;85.46;94523.66;5106159;28;20183;-79
2021/01/01 07:26:04;;;;;;;4.30;3.37;;;;;;;-1.35;85.83;94526.31;5072314;28;20214;-79
2021/01/01 07:28:30;;;;;;;4.90;3.43;;;;;;;-1.38;85.70;94529.06;5059700;28;20198;-80
2021/01/01 07:30:55;;;;;;;5.23;3.43;;;;;;;-1.35;85.88;94540.78;5076532;28;20256;-79
2021/01/01 07:33:25;;;;;;;4.43;3.47;;;;;;;-1.38;85.60;94536.69;5083631;27;20192;-77
2021/01/01 07:35:54;;;;;;;5.00;4.10;;;;;;;-1.35;86.20;94543.31;5106885;28;20244;-77
2021/01/01 07:38:20;;;;;;;4.63;3.90;;;;;;;-1.36;86.06;94539.94;5114933;28;20182;-77
2021/01/01 07:40:46;;;;;;;4.97;3.53;;;;;;;-1.34;86.42;94545.75;5112063;28;20195;-77
2021/01/01 07:43:11;;;;;;;4.20;3.50;;;;;;;-1.32;86.31;94543.13;5112183;28;20183;-77
2021/01/01 07:45:37;;;;;;;5.37;4.40;;;;;;;-1.32;85.97;94543.94;5100138;28;20736;-78
2021/01/01 07:48:03;;;;;;;5.07;3.67;;;;;;;-1.31;85.80;94547.31;5092650;28;20272;-77
2021/01/01 07:50:30;;;;;;;5.10;4.27;;;;;;;-1.28;86.09;94558.09;5092907;28;20236;-78
2021/01/01 07:53:03;;;;;;;5.67;4.27;;;;;;;-1.27;86.04;94548.72;5093919;28;20179;-77
2021/01/01 07:55:29;;;;;;;6.03;4.53;;;;;;;-1.22;85.83;94554.34;5122110;27;20199;-78
2021/01/01 07:57:59;;;;;;;5.07;4.23;;;;;;;-1.16;85.63;94556.47;5096098;28;20203;-78
2021/01/01 08:00:28;;;;;;;7.03;4.97;;;;;;;-1.14;85.66;94564.84;5096142;28;20186;-80
2021/01/01 08:02:54;;;;;;;5.97;4.97;;;;;;;-1.10;85.77;94568.00;5096275;28;20262;-79
2021/01/01 08:05:19;;;;;;;5.17;3.97;;;;;;;-1.08;85.44;94568.69;5108504;28;20287;-79
2021/01/01 08:07:45;;;;;;;10.37;6.90;;;;;;;-1.06;85.17;94567.72;5095892;28;20661;-78
2021/01/01 08:10:10;;;;;;;11.70;6.40;;;;;;;-0.99;84.88;94573.19;5113026;28;20184;-77
2021/01/01 08:12:36;;;;;;;9.50;6.17;;;;;;;-0.98;84.37;94573.09;5112616;28;20182;-79
2021/01/01 08:15:02;;;;;;;15.83;9.13;;;;;;;-0.94;84.85;94577.06;5099156;27;20212;-80
2021/01/01 08:17:29;;;;;;;8.37;6.23;;;;;;;-0.97;84.15;94581.53;5104461;28;20667;-80
2021/01/01 08:19:56;;;;;;;10.17;6.87;;;;;;;-0.87;84.46;94583.41;5111881;28;20171;-76
2021/01/01 08:22:34;;;;;;;9.60;6.43;;;;;;;-0.84;84.53;94576.47;5112095;28;20214;-79
2021/01/01 08:25:00;;;;;;;9.70;5.93;;;;;;;-0.84;84.33;94576.47;5111186;28;20175;-79
2021/01/01 08:27:26;;;;;;;7.37;5.60;;;;;;;-0.78;84.27;94579.41;5111809;28;20739;-77
2021/01/01 08:29:53;;;;;;;5.93;4.87;;;;;;;-0.76;84.30;94576.75;5112283;28;20178;-77
2021/01/01 08:32:19;;;;;;;6.63;5.00;;;;;;;-0.70;84.10;94579.72;5078127;28;20183;-77
2021/01/01 08:34:53;;;;;;;7.50;5.97;;;;;;;-0.72;83.90;94585.81;5095478;28;20183;-77
2021/01/01 08:37:23;;;;;;;7.33;5.60;;;;;;;-0.68;83.80;94590.63;5126885;27;20727;-78
2021/01/01 08:40:09;;;;;;;6.13;5.17;;;;;;;-0.62;83.48;94591.94;5081756;28;20263;-77
2021/01/01 08:42:36;;;;;;;8.33;6.40;;;;;;;-0.58;83.90;94599.28;5075982;28;20631;-77
2021/01/01 08:45:05;;;;;;;8.03;6.53;;;;;;;-0.58;83.46;94604.38;5086633;28;20252;-78
2021/01/01 08:47:51;;;;;;;10.20;8.10;;;;;;;-0.50;83.21;94603.88;5116814;27;20362;-79
2021/01/01 08:50:24;;;;;;;17.10;12.37;;;;;;;-0.43;83.22;94606.84;5085536;28;20190;-77
2021/01/01 08:52:51;;;;;;;11.40;8.00;;;;;;;-0.43;82.98;94601.72;5074145;28;20173;-77
2021/01/01 08:55:17;;;;;;;11.83;7.50;;;;;;;-0.37;83.17;94611.50;5075047;28;20724;-80
2021/01/01 08:57:42;;;;;;;6.87;5.27;;;;;;;-0.30;82.50;94610.97;5084992;28;20225;-78
2021/01/01 09:00:08;;;;;;;8.07;6.17;;;;;;;-0.31;82.82;94618.75;5094355;28;20663;-77
2021/01/01 09:02:34;;;;;;;7.73;6.07;;;;;;;-0.26;82.61;94611.59;5094531;28;20180;-77
2021/01/01 09:05:00;;;;;;;9.03;6.50;;;;;;;-0.21;82.68;94619.72;5094679;28;20527;-79
2021/01/01 09:07:25;;;;;;;8.37;6.13;;;;;;;-0.17;82.71;94623.72;5079043;28;20213;-81
2021/01/01 09:09:51;;;;;;;7.20;5.80;;;;;;;-0.15;81.87;94621.88;5110392;28;20186;-80
2021/01/01 09:12:21;;;;;;;8.60;6.13;;;;;;;-0.12;82.11;94623.38;5106731;28;20179;-79
2021/01/01 09:14:52;;;;;;;8.80;6.67;;;;;;;-0.09;82.05;94625.72;5091802;28;20270;-80
2021/01/01 09:17:19;;;;;;;9.30;6.83;;;;;;;0.05;82.06;94628.16;5092006;28;20210;-80
2021/01/01 09:19:44;;;;;;;8.27;6.90;;;;;;;0.06;81.08;94624.66;5104037;28;20183;-79
2021/01/01 09:22:15;;;;;;;7.73;5.87;;;;;;;0.02;81.51;94618.16;5105153;28;20221;-80
2021/01/01 09:24:40;;;;;;;7.03;5.50;;;;;;;0.14;81.35;94621.59;5092349;28;20635;-78
2021/01/01 09:27:05;;;;;;;6.83;5.40;;;;;;;0.16;81.31;94615.44;5092918;28;20195;-79
2021/01/01 09:29:31;;;;;;;7.60;6.07;;;;;;;0.23;81.32;94624.31;5098268;28;20203;-79
2021/01/01 09:31:56;;;;;;;7.57;5.77;;;;;;;0.23;80.85;94621.75;5115840;28;20214;-79
2021/01/01 09:34:22;;;;;;;7.97;5.97;;;;;;;0.21;80.60;94627.91;5116037;28;20199;-79
2021/01/01 09:36:47;;;;;;;7.43;5.97;;;;;;;0.37;80.85;94628.44;5115912;28;20212;-79
2021/01/01 09:39:13;;;;;;;9.77;6.80;;;;;;;0.44;80.65;94633.91;5115652;28;20234;-78
2021/01/01 09:41:39;;;;;;;6.20;5.40;;;;;;;0.46;80.41;94637.22;5114968;28;20210;-80
2021/01/01 09:44:05;;;;;;;8.63;6.70;;;;;;;0.52;80.10;94637.56;5098284;28;20179;-79
2021/01/01 09:46:31;;;;;;;7.10;6.30;;;;;;;0.50;80.07;94646.25;5115797;28;20610;-80
2021/01/01 09:48:56;;;;;;;7.73;6.00;;;;;;;0.57;79.92;94647.47;5098223;28;20172;-79
2021/01/01 09:51:22;;;;;;;7.60;6.00;;;;;;;0.66;80.04;94651.91;5084747;27;20222;-79
2021/01/01 09:53:47;;;;;;;7.90;6.03;;;;;;;0.72;79.34;94648.13;5102397;28;20188;-77
2021/01/01 09:56:12;;;;;;;7.93;6.27;;;;;;;0.54;78.88;94645.13;5085932;28;20226;-79
2021/01/01 09:58:37;;;;;;;8.30;6.17;;;;;;;0.65;79.52;94647.75;5115192;28;20180;-78
2021/01/01 10:01:03;;;;;;;7.87;6.03;;;;;;;0.81;79.44;94658.50;5113796;28;20172;-79
2021/01/01 10:03:29;;;;;;;6.87;5.87;;;;;;;0.86;78.70;94655.59;5113871;28;20180;-79
2021/01/01 10:05:54;;;;;;;9.17;7.37;;;;;;;1.06;78.65;94656.69;5115012;28;20682;-79
2021/01/01 10:08:19;;;;;;;7.43;6.00;;;;;;;1.22;77.76;94653.84;5115082;28;20176;-78
2021/01/01 10:10:45;;;;;;;6.73;5.23;;;;;;;1.42;77.66;94661.69;5115029;28;20223;-79
2021/01/01 10:13:10;;;;;;;7.27;5.30;;;;;;;1.26;76.77;94666.31;5097203;28;20222;-79
2021/01/01 10:15:37;;;;;;;6.03;5.40;;;;;;;1.32;76.51;94658.16;5081045;28;20569;-78
2021/01/01 10:18:02;;;;;;;6.90;5.50;;;;;;;1.18;76.66;94655.00;5114588;28;20175;-79
2021/01/01 10:20:27;;;;;;;6.40;5.23;;;;;;;1.25;76.45;94657.00;5113779;28;20239;-77
2021/01/01 10:22:53;;;;;;;9.73;6.10;;;;;;;1.22;76.02;94651.28;5114138;27;20183;-78
2021/01/01 10:25:18;;;;;;;7.77;5.77;;;;;;;1.31;75.55;94653.16;5102152;28;20189;-78
2021/01/01 10:27:43;;;;;;;7.00;5.23;;;;;;;1.35;75.52;94657.13;5096658;28;20547;-77
2021/01/01 10:30:09;;;;;;;6.53;5.13;;;;;;;1.39;75.34;94654.22;5096721;28;20639;-78
2021/01/01 10:32:34;;;;;;;5.73;4.83;;;;;;;1.38;75.25;94651.78;5079776;28;20179;-78
2021/01/01 10:35:00;;;;;;;6.23;5.10;;;;;;;1.36;75.05;94659.56;5126232;27;20192;-77
2021/01/01 10:37:25;;;;;;;6.40;4.90;;;;;;;1.41;75.00;94665.19;5108518;28;20203;-78
2021/01/01 10:39:50;;;;;;;8.20;5.50;;;;;;;1.41;74.77;94654.94;5093641;28;20177;-79
2021/01/01 10:42:15;;;;;;;4.77;4.20;;;;;;;1.42;74.40;94648.91;5092991;28;20544;-79
2021/01/01 10:44:41;;;;;;;6.33;4.93;;;;;;;1.39;74.16;94651.66;5083575;28;20179;-78
2021/01/01 10:47:06;;;;;;;5.37;4.33;;;;;;;1.33;74.04;94649.59;5100938;28;20221;-78
2021/01/01 10:49:33;;;;;;;5.60;4.47;;;;;;;1.35;73.91;94649.47;5076025;28;20234;-78
2021/01/01 10:51:59;;;;;;;5.23;4.27;;;;;;;1.45;73.21;94644.47;5076121;28;20715;-78
2021/01/01 10:54:25;;;;;;;4.50;3.80;;;;;;;1.23;73.45;94643.50;5093815;28;20248;-78
2021/01/01 10:56:50;;;;;;;6.07;4.70;;;;;;;1.44;72.94;94651.34;5112244;28;20207;-78
2021/01/01 10:59:15;;;;;;;5.97;4.60;;;;;;;1.27;72.88;94650.03;5109797;28;20176;-78
2021/01/01 11:01:41;;;;;;;5.17;3.93;;;;;;;1.18;71.69;94653.25;5093102;28;20233;-78
2021/01/01 11:04:06;;;;;;;7.27;5.10;;;;;;;1.44;72.31;94645.41;5092463;28;20176;-78
2021/01/01 11:06:35;;;;;;;6.80;5.00;;;;;;;1.65;71.11;94648.91;5103405;28;20712;-78
2021/01/01 11:09:01;;;;;;;6.93;5.10;;;;;;;1.56;70.85;94655.53;5088491;28;20691;-78
2021/01/01 11:11:26;;;;;;;8.80;5.50;;;;;;;1.22;71.25;94652.09;5094471;28;20200;-79
2021/01/01 11:14:10;;;;;;;6.87;4.83;;;;;;;1.27;71.68;94657.69;5076521;28;20180;-79
2021/01/01 12:25:15;;;;;;;5.10;4.57;;;;;;;0.84;72.58;94627.59;5095361;28;20262;-77
2021/01/01 12:27:42;;;;;;;6.90;5.37;;;;;;;0.68;72.33;94621.16;5111286;28;20267;-76
2021/01/01 12:30:09;;;;;;;8.87;5.90;;;;;;;0.75;72.80;94615.47;5094126;28;20171;-78
2021/01/01 12:32:37;;;;;;;7.03;4.90;;;;;;;0.67;72.67;94622.88;5105924;28;20184;-78
2021/01/01 12:35:02;;;;;;;6.30;5.20;;;;;;;0.55;72.61;94626.34;5106313;28;20187;-77
2021/01/01 12:37:28;;;;;;;8.53;7.63;;;;;;;0.56;72.87;94622.84;5093874;28;20559;-77